createdAt,value
2023-02-03T00:01:27.013Z,77.03
2023-02-03T00:03:53.564Z,76.35
2023-02-03T00:06:20.159Z,76.32
2023-02-03T00:08:47.312Z,77.17
2023-02-03T00:11:14.081Z,76.23
2023-02-03T00:13:40.861Z,75.92
2023-02-03T00:16:07.764Z,76.87
2023-02-03T00:18:34.475Z,76.58
2023-02-03T00:21:00.974Z,77.10
2023-02-03T00:23:31.947Z,76.05
2023-02-03T00:26:07.157Z,76.56
2023-02-03T00:28:33.687Z,75.69
2023-02-03T00:31:00.156Z,76.51
2023-02-03T00:33:26.616Z,77.30
2023-02-03T00:35:53.103Z,76.40
2023-02-03T00:38:19.565Z,76.89
2023-02-03T00:40:53.563Z,76.00
2023-02-03T00:43:21.310Z,76.61
2023-02-03T00:45:48.099Z,77.12
2023-02-03T00:48:14.769Z,75.90
2023-02-03T00:50:41.286Z,75.97
2023-02-03T00:53:07.775Z,76.12
2023-02-03T00:55:34.492Z,74.79
2023-02-03T00:58:01.009Z,75.25
2023-02-03T01:00:27.926Z,74.48
2023-02-03T01:02:54.769Z,75.50
2023-02-03T01:05:21.309Z,74.14
2023-02-03T01:07:48.060Z,75.73
2023-02-03T01:10:15.667Z,75.32
2023-02-03T01:12:42.177Z,76.67
2023-02-03T01:15:08.914Z,76.34
2023-02-03T01:17:35.467Z,75.64
2023-02-03T01:20:01.989Z,75.81
2023-02-03T01:22:31.618Z,75.67
2023-02-03T01:24:58.359Z,75.26
2023-02-03T01:27:25.003Z,75.51
2023-02-03T01:29:51.689Z,75.48
2023-02-03T01:32:18.138Z,75.51
2023-02-03T01:34:45.005Z,74.52
2023-02-03T01:37:11.839Z,73.96
2023-02-03T01:39:38.294Z,75.19
2023-02-03T01:42:06.019Z,73.67
2023-02-03T01:44:42.705Z,73.89
2023-02-03T01:47:16.293Z,73.27
2023-02-03T01:49:48.027Z,74.96
2023-02-03T01:52:15.200Z,75.21
2023-02-03T01:54:44.577Z,75.67
2023-02-03T01:57:17.136Z,74.55
2023-02-03T01:59:43.812Z,74.89
2023-02-03T02:02:11.648Z,75.39
2023-02-03T02:04:58.478Z,75.39
2023-02-03T02:07:25.506Z,75.27
2023-02-03T02:09:52.248Z,74.80
2023-02-03T02:12:18.877Z,74.85
2023-02-03T02:14:45.966Z,74.28
2023-02-03T02:17:45.054Z,73.64
2023-02-03T02:20:14.558Z,73.68
2023-02-03T02:23:06.109Z,74.41
2023-02-03T02:25:51.504Z,74.68
2023-02-03T02:28:42.001Z,74.91
2023-02-03T02:31:38.410Z,74.24
2023-02-03T02:34:28.954Z,73.81
2023-02-03T02:37:07.356Z,73.35
2023-02-03T02:39:47.193Z,72.86
2023-02-03T02:42:43.063Z,73.62
2023-02-03T02:45:14.604Z,72.52
2023-02-03T02:47:41.174Z,72.53
2023-02-03T02:50:22.789Z,72.25
2023-02-03T02:52:50.097Z,72.80
2023-02-03T02:55:27.740Z,74.00
2023-02-03T02:57:56.439Z,73.80
2023-02-03T03:00:23.509Z,73.50
2023-02-03T03:02:50.319Z,72.68
2023-02-03T03:05:18.144Z,72.75
2023-02-03T03:07:55.651Z,73.13
2023-02-03T03:10:25.017Z,72.84
2023-02-03T03:12:55.869Z,72.68
2023-02-03T03:15:27.480Z,73.64
2023-02-03T03:18:11.409Z,73.24
2023-02-03T03:20:40.390Z,72.58
2023-02-03T03:23:08.417Z,71.64
2023-02-03T03:25:41.093Z,70.99
2023-02-03T03:28:15.224Z,70.67
2023-02-03T03:30:41.938Z,71.59
2023-02-03T03:33:08.964Z,72.26
2023-02-03T03:36:14.915Z,72.65
2023-02-03T03:38:46.210Z,71.61
2023-02-03T03:41:37.391Z,72.08
2023-02-03T03:44:05.311Z,72.35
2023-02-03T03:46:36.117Z,71.30
2023-02-03T03:49:04.384Z,70.34
2023-02-03T03:51:48.193Z,72.18
2023-02-03T03:54:17.466Z,72.59
2023-02-03T03:56:57.061Z,72.20
2023-02-03T03:59:25.289Z,70.68
2023-02-03T04:01:52.704Z,71.29
2023-02-03T04:04:19.752Z,71.40
2023-02-03T04:06:46.236Z,71.39
2023-02-03T04:09:12.798Z,71.23
2023-02-03T04:11:58.028Z,70.74
2023-02-03T04:14:24.825Z,71.69
2023-02-03T04:16:51.451Z,71.07
2023-02-03T04:19:18.106Z,70.70
2023-02-03T04:21:44.744Z,71.24
2023-02-03T04:24:12.105Z,69.92
2023-02-03T04:26:38.998Z,68.95
2023-02-03T04:29:05.458Z,70.19
2023-02-03T04:31:32.290Z,69.59
2023-02-03T04:33:58.889Z,69.88
2023-02-03T04:36:25.409Z,69.16
2023-02-03T04:38:51.963Z,69.67
2023-02-03T04:41:18.523Z,70.09
2023-02-03T04:43:45.335Z,69.74
2023-02-03T04:46:11.965Z,68.72
2023-02-03T04:48:39.525Z,70.07
2023-02-03T04:51:08.201Z,70.26
2023-02-03T04:53:34.951Z,70.48
2023-02-03T04:56:04.216Z,70.52
2023-02-03T04:58:30.818Z,69.99
2023-02-03T05:00:57.689Z,69.87
2023-02-03T05:03:26.266Z,69.03
2023-02-03T05:05:53.199Z,69.20
2023-02-03T05:08:20.252Z,69.21
2023-02-03T05:10:46.768Z,69.55
2023-02-03T05:13:13.685Z,69.43
2023-02-03T05:15:43.408Z,69.45
2023-02-03T05:18:10.126Z,68.96
2023-02-03T05:20:36.899Z,69.72
2023-02-03T05:23:03.514Z,70.05
2023-02-03T05:25:30.332Z,69.99
2023-02-03T05:27:57.161Z,69.38
2023-02-03T05:30:24.070Z,69.96
2023-02-03T05:32:50.613Z,68.21
2023-02-03T05:35:17.326Z,69.15
2023-02-03T05:37:45.655Z,70.02
2023-02-03T05:40:31.883Z,69.55
2023-02-03T05:42:58.452Z,69.91
2023-02-03T05:45:25.135Z,70.07
2023-02-03T05:47:51.968Z,69.85
2023-02-03T05:50:18.559Z,69.30
2023-02-03T05:52:45.038Z,68.86
2023-02-03T05:55:11.556Z,69.47
2023-02-03T05:57:38.060Z,68.36
2023-02-03T06:00:07.445Z,69.21
2023-02-03T06:02:34.179Z,69.37
2023-02-03T06:05:01.575Z,68.78
2023-02-03T06:07:28.141Z,69.47
2023-02-03T06:09:54.670Z,70.17
2023-02-03T06:12:22.148Z,69.52
2023-02-03T06:14:48.880Z,70.31
2023-02-03T06:17:15.515Z,69.24
2023-02-03T06:19:42.073Z,69.32
2023-02-03T06:22:08.990Z,69.79
2023-02-03T06:24:35.578Z,70.13
2023-02-03T06:27:02.101Z,69.15
2023-02-03T06:29:28.644Z,69.55
2023-02-03T06:31:55.308Z,68.63
2023-02-03T06:34:21.926Z,68.75
2023-02-03T06:36:49.167Z,67.37
2023-02-03T06:39:16.131Z,69.57
2023-02-03T06:41:42.699Z,70.18
2023-02-03T06:44:09.161Z,68.63
2023-02-03T06:46:35.791Z,69.10
2023-02-03T06:49:02.310Z,69.56
2023-02-03T06:51:29.243Z,69.20
2023-02-03T06:53:55.988Z,69.32
2023-02-03T06:56:22.497Z,70.17
2023-02-03T06:58:49.034Z,69.69
2023-02-03T07:01:15.619Z,69.73
2023-02-03T07:03:42.396Z,70.60
2023-02-03T07:06:08.880Z,71.05
2023-02-03T07:08:35.328Z,71.65
2023-02-03T07:11:01.863Z,71.72
2023-02-03T07:13:28.675Z,72.45
2023-02-03T07:15:55.656Z,71.16
2023-02-03T07:21:14.051Z,75.48
2023-02-03T07:23:40.864Z,76.19
2023-02-03T07:26:08.366Z,75.83
2023-02-03T07:28:35.502Z,75.57
2023-02-03T07:31:04.757Z,75.95
2023-02-03T07:33:32.067Z,74.83
2023-02-03T07:35:59.684Z,74.88
2023-02-03T07:38:27.491Z,74.57
2023-02-03T07:40:54.436Z,75.08
2023-02-03T07:43:20.971Z,74.73
2023-02-03T07:45:47.995Z,75.51
2023-02-03T07:48:14.845Z,74.34
2023-02-03T07:50:41.514Z,74.58
2023-02-03T07:53:10.977Z,74.79
2023-02-03T07:55:40.537Z,73.98
2023-02-03T07:58:07.505Z,74.72
2023-02-03T08:00:34.693Z,74.82
2023-02-03T08:03:01.178Z,73.37
2023-02-03T08:05:27.987Z,73.55
2023-02-03T08:07:54.500Z,74.49
2023-02-03T08:10:21.167Z,73.45
2023-02-03T08:12:48.065Z,72.63
2023-02-03T08:15:14.643Z,71.78
2023-02-03T08:17:42.086Z,72.35
2023-02-03T08:20:09.587Z,71.85
2023-02-03T08:22:36.096Z,70.79
2023-02-03T08:25:02.743Z,71.76
2023-02-03T08:27:29.640Z,71.93
2023-02-03T08:29:56.129Z,71.14
2023-02-03T08:32:22.830Z,70.56
2023-02-03T08:34:50.400Z,71.37
2023-02-03T08:37:19.048Z,71.50
2023-02-03T08:39:45.501Z,71.55
2023-02-03T08:42:12.007Z,70.75
2023-02-03T08:44:41.385Z,71.55
2023-02-03T08:47:08.119Z,71.65
2023-02-03T08:49:35.908Z,72.40
2023-02-03T08:52:02.490Z,71.98
2023-02-03T08:54:28.938Z,72.49
2023-02-03T08:56:55.423Z,71.75
2023-02-03T08:59:21.963Z,71.67
2023-02-03T09:01:48.657Z,72.80
2023-02-03T09:04:19.693Z,71.51
2023-02-03T09:06:47.874Z,71.15
2023-02-03T09:09:15.101Z,71.49
2023-02-03T09:11:42.458Z,71.72
2023-02-03T09:14:09.703Z,71.31
2023-02-03T09:16:36.581Z,70.17
2023-02-03T09:19:03.119Z,71.28
2023-02-03T09:21:37.100Z,69.48
2023-02-03T09:24:08.827Z,71.27
2023-02-03T09:26:35.354Z,70.63
2023-02-03T09:29:02.266Z,69.80
2023-02-03T09:31:28.804Z,70.69
2023-02-03T09:33:55.428Z,70.62
2023-02-03T09:36:21.982Z,70.74
2023-02-03T09:38:49.269Z,70.69
2023-02-03T09:41:34.960Z,71.17
2023-02-03T09:44:06.585Z,71.49
2023-02-03T09:46:36.638Z,70.78
2023-02-03T09:49:08.876Z,70.84
2023-02-03T09:51:50.928Z,70.61
2023-02-03T09:54:26.609Z,71.41
2023-02-03T09:56:55.686Z,69.58
2023-02-03T09:59:23.066Z,70.82
2023-02-03T10:02:02.201Z,70.54
2023-02-03T10:04:34.803Z,70.37
2023-02-03T10:07:25.580Z,70.82
2023-02-03T10:10:03.061Z,71.40
2023-02-03T10:12:54.459Z,71.59
2023-02-03T10:15:38.448Z,70.40
2023-02-03T10:18:07.802Z,70.62
2023-02-03T10:20:39.907Z,70.19
2023-02-03T10:23:20.506Z,70.02
2023-02-03T10:25:57.400Z,69.94
2023-02-03T10:28:28.061Z,70.79
2023-02-03T10:30:57.325Z,70.34
2023-02-03T10:33:29.151Z,70.01
2023-02-03T10:35:59.533Z,71.15
2023-02-03T10:38:41.516Z,72.41
2023-02-03T10:41:08.250Z,72.56
2023-02-03T10:43:51.705Z,72.59
2023-02-03T10:46:29.223Z,72.56
2023-02-03T10:48:56.321Z,72.29
2023-02-03T10:51:28.773Z,71.50
2023-02-03T10:53:55.389Z,71.15
2023-02-03T10:56:35.132Z,71.90
2023-02-03T10:59:01.907Z,70.66
2023-02-03T11:01:38.806Z,69.96
2023-02-03T11:04:06.841Z,71.96
2023-02-03T11:06:35.290Z,70.57
2023-02-03T11:09:02.163Z,70.45
2023-02-03T11:11:32.407Z,70.66
2023-02-03T11:14:05.066Z,70.50
2023-02-03T11:16:33.655Z,70.96
2023-02-03T11:19:19.535Z,70.21
2023-02-03T11:21:54.314Z,70.50
2023-02-03T11:24:28.965Z,69.13
2023-02-03T11:27:03.131Z,69.56
2023-02-03T11:29:32.288Z,69.70
2023-02-03T11:32:01.837Z,70.68
2023-02-03T11:34:30.575Z,70.72
2023-02-03T11:36:57.389Z,71.03
2023-02-03T11:39:29.980Z,71.24
2023-02-03T11:41:56.957Z,71.29
2023-02-03T11:44:26.317Z,71.32
2023-02-03T11:46:59.133Z,71.21
2023-02-03T11:50:03.799Z,71.08
2023-02-03T11:52:38.104Z,71.07
2023-02-03T11:55:17.577Z,73.04
2023-02-03T11:58:10.251Z,72.81
2023-02-03T12:00:58.395Z,71.48
2023-02-03T12:03:37.198Z,73.73
2023-02-03T12:06:14.652Z,74.08
2023-02-03T12:08:54.923Z,73.54
2023-02-03T12:11:35.983Z,73.17
2023-02-03T12:14:25.050Z,74.93
2023-02-03T12:17:33.777Z,74.88
2023-02-03T12:20:06.828Z,73.61
2023-02-03T12:22:45.031Z,74.89
2023-02-03T12:25:26.669Z,73.40
2023-02-03T12:28:10.069Z,73.54
2023-02-03T12:30:46.832Z,73.03
2023-02-03T12:33:21.050Z,73.72
2023-02-03T12:36:13.233Z,74.01
2023-02-03T12:39:21.597Z,74.54
2023-02-03T12:42:01.941Z,75.95
2023-02-03T12:44:42.588Z,76.70
2023-02-03T12:47:16.947Z,76.07
2023-02-03T12:50:07.635Z,76.32
2023-02-03T12:52:57.263Z,75.19
2023-02-03T12:55:46.638Z,76.02
2023-02-03T12:58:40.363Z,75.99
2023-02-03T13:01:23.496Z,75.54
2023-02-03T13:04:14.317Z,75.50
2023-02-03T13:07:04.813Z,75.68
2023-02-03T13:09:51.444Z,74.76
2023-02-03T13:12:32.562Z,75.37
2023-02-03T13:15:26.787Z,74.69
2023-02-03T13:17:55.774Z,74.16
2023-02-03T13:20:25.412Z,74.07
2023-02-03T13:22:53.349Z,73.80
2023-02-03T13:25:40.964Z,74.24
2023-02-03T13:28:29.345Z,75.52
2023-02-03T13:31:11.119Z,75.97
2023-02-03T13:33:59.406Z,77.42
2023-02-03T13:36:38.004Z,77.38
2023-02-03T13:39:42.993Z,76.90
2023-02-03T13:42:33.000Z,76.41
2023-02-03T13:45:12.431Z,77.01
2023-02-03T13:47:39.528Z,74.85
2023-02-03T13:50:09.939Z,75.45
2023-02-03T13:52:47.812Z,74.01
2023-02-03T13:55:27.185Z,74.58
2023-02-03T13:57:54.085Z,73.79
2023-02-03T14:00:45.601Z,72.91
2023-02-03T14:03:24.172Z,72.93
2023-02-03T14:05:55.293Z,72.36
2023-02-03T14:08:28.062Z,71.60
2023-02-03T14:11:32.626Z,71.16
2023-02-03T14:14:08.374Z,72.10
2023-02-03T14:16:48.076Z,71.72
2023-02-03T14:19:29.918Z,71.53
2023-02-03T14:22:04.845Z,72.05
2023-02-03T14:24:33.489Z,71.33
2023-02-03T14:27:02.516Z,72.21
2023-02-03T14:29:36.488Z,71.65
2023-02-03T14:32:05.204Z,71.11
2023-02-03T14:34:45.224Z,70.23
2023-02-03T14:37:29.941Z,71.32
2023-02-03T14:40:11.290Z,70.09
2023-02-03T14:42:53.746Z,71.48
2023-02-03T14:45:39.280Z,69.80
2023-02-03T14:48:26.999Z,71.17
2023-02-03T14:51:17.845Z,70.45
2023-02-03T14:54:27.179Z,71.30
2023-02-03T14:57:19.619Z,71.03
2023-02-03T14:59:49.578Z,70.65
2023-02-03T15:02:23.318Z,70.85
2023-02-03T15:04:51.879Z,70.48
2023-02-03T15:07:41.754Z,69.02
2023-02-03T15:10:20.445Z,68.25
2023-02-03T15:12:48.404Z,68.32
2023-02-03T15:15:33.088Z,68.36
2023-02-03T15:18:12.739Z,69.18
2023-02-03T15:20:43.557Z,69.25
2023-02-03T15:23:24.348Z,68.44
2023-02-03T15:26:02.200Z,68.37
2023-02-03T15:28:30.195Z,67.92
2023-02-03T15:31:11.760Z,67.43
2023-02-03T15:33:38.645Z,67.96
2023-02-03T15:36:27.392Z,67.35
2023-02-03T15:38:59.285Z,66.13
2023-02-03T15:41:26.531Z,64.57
2023-02-03T15:43:57.962Z,65.42
2023-02-03T15:46:38.745Z,65.35
2023-02-03T15:49:11.984Z,64.43
2023-02-03T15:51:48.743Z,64.47
2023-02-03T15:54:30.495Z,64.02
2023-02-03T15:57:00.421Z,62.72
2023-02-03T15:59:32.616Z,62.33
2023-02-03T16:02:01.640Z,62.28
2023-02-03T16:04:28.253Z,62.33
2023-02-03T16:06:55.892Z,62.19
2023-02-03T16:09:34.960Z,62.64
2023-02-03T16:12:31.391Z,62.62
2023-02-03T16:15:03.184Z,62.03
2023-02-03T16:17:35.646Z,61.39
2023-02-03T16:20:23.600Z,61.49
2023-02-03T16:23:21.008Z,60.92
2023-02-03T16:26:13.742Z,61.26
2023-02-03T16:28:59.128Z,60.83
2023-02-03T16:31:44.045Z,61.75
2023-02-03T16:34:32.860Z,61.50
2023-02-03T16:37:18.031Z,61.32
2023-02-03T16:40:03.272Z,61.32
2023-02-03T16:42:56.660Z,60.78
2023-02-03T16:45:41.780Z,60.26
2023-02-03T16:48:30.660Z,60.24
2023-02-03T16:51:12.178Z,60.73
2023-02-03T16:53:38.945Z,60.78
2023-02-03T16:56:05.979Z,60.87
2023-02-03T16:58:32.619Z,59.44
2023-02-03T17:01:01.343Z,59.91
2023-02-03T17:03:28.705Z,59.85
2023-02-03T17:05:56.058Z,59.55
2023-02-03T17:08:24.902Z,59.85
2023-02-03T17:10:51.760Z,59.07
2023-02-03T17:13:20.231Z,58.84
2023-02-03T17:15:49.818Z,59.93
2023-02-03T17:18:16.668Z,59.55
2023-02-03T17:20:44.162Z,58.95
2023-02-03T17:23:11.234Z,59.92
2023-02-03T17:25:38.829Z,60.00
2023-02-03T17:28:06.413Z,59.57
2023-02-03T17:30:35.090Z,59.37
2023-02-03T17:33:02.922Z,60.02
2023-02-03T17:35:29.796Z,59.33
2023-02-03T17:37:56.637Z,59.86
2023-02-03T17:54:06.585Z,60.30
2023-02-03T17:56:35.492Z,60.03
2023-02-03T17:59:03.813Z,59.50
2023-02-03T18:01:30.759Z,60.92
2023-02-03T18:03:59.315Z,60.84
2023-02-03T18:06:28.001Z,59.58
2023-02-03T18:09:00.993Z,60.04
2023-02-03T18:11:28.992Z,59.03
2023-02-03T18:13:55.941Z,59.42
2023-02-03T18:16:29.252Z,59.92
2023-02-03T18:18:56.611Z,58.58
2023-02-03T18:21:24.581Z,59.59
2023-02-03T18:23:51.871Z,59.15
2023-02-03T18:26:19.804Z,58.51
2023-02-03T18:28:46.965Z,58.83
2023-02-03T18:31:15.704Z,59.77
2023-02-03T18:33:43.907Z,59.63
2023-02-03T18:36:12.738Z,59.88
2023-02-03T18:38:40.870Z,60.10
2023-02-03T18:41:17.801Z,60.42
2023-02-03T18:43:44.960Z,61.10
2023-02-03T18:46:14.336Z,60.56
2023-02-03T18:48:40.906Z,60.83
2023-02-03T18:51:12.979Z,61.25
2023-02-03T18:53:44.991Z,61.80
2023-02-03T18:56:16.768Z,61.19
2023-02-03T18:58:46.643Z,61.93
2023-02-03T19:01:27.236Z,61.62
2023-02-03T19:03:58.324Z,62.28
2023-02-03T19:06:29.130Z,60.88
2023-02-03T19:08:56.225Z,61.67
2023-02-03T19:11:26.204Z,61.69
2023-02-03T19:13:53.025Z,61.51
2023-02-03T19:16:19.812Z,61.02
2023-02-03T19:18:46.954Z,61.88
2023-02-03T19:21:14.339Z,61.45
2023-02-03T19:23:41.673Z,62.07
2023-02-03T19:26:09.874Z,61.00
2023-02-03T19:28:37.159Z,60.93
2023-02-03T19:31:09.016Z,61.85
2023-02-03T19:33:36.964Z,61.26
2023-02-03T19:36:07.606Z,61.12
2023-02-03T19:38:35.257Z,61.06
2023-02-03T19:41:02.541Z,61.97
2023-02-03T19:43:32.416Z,61.82
2023-02-03T19:45:59.951Z,62.17
2023-02-03T19:48:26.976Z,62.92
2023-02-03T19:50:54.347Z,62.10
2023-02-03T19:53:21.709Z,62.03
2023-02-03T19:55:49.042Z,62.87
2023-02-03T19:58:16.532Z,63.17
2023-02-03T20:00:43.439Z,61.88
2023-02-03T20:03:10.754Z,62.16
2023-02-03T20:05:38.255Z,61.08
2023-02-03T20:08:06.455Z,60.41
2023-02-03T20:10:33.652Z,61.47
2023-02-03T20:13:00.905Z,60.47
2023-02-03T20:15:27.891Z,61.73
2023-02-03T20:17:54.863Z,62.09
2023-02-03T20:20:23.965Z,61.89
2023-02-03T20:22:50.513Z,62.57
2023-02-03T20:25:17.425Z,61.37
2023-02-03T20:27:44.179Z,62.03
2023-02-03T20:30:12.001Z,62.32
2023-02-03T20:32:39.063Z,62.08
2023-02-03T20:35:06.483Z,62.62
2023-02-03T20:37:36.096Z,63.08
2023-02-03T20:40:06.947Z,63.23
2023-02-03T20:42:34.103Z,63.19
2023-02-03T20:45:01.116Z,63.04
2023-02-03T20:47:28.133Z,62.61
2023-02-03T20:49:56.082Z,64.00
2023-02-03T20:52:23.175Z,64.08
2023-02-03T20:54:50.025Z,64.13
2023-02-03T20:57:18.790Z,64.75
2023-02-03T20:59:46.472Z,63.67
2023-02-03T21:02:30.777Z,63.54
2023-02-03T21:04:58.127Z,63.61
2023-02-03T21:07:30.794Z,63.99
2023-02-03T21:10:01.706Z,63.56
2023-02-03T21:12:28.856Z,64.68
2023-02-03T21:14:56.393Z,64.64
2023-02-03T21:17:27.279Z,63.06
2023-02-03T21:19:55.435Z,64.55
2023-02-03T21:22:27.398Z,64.18
2023-02-03T21:24:57.912Z,64.68
2023-02-03T21:27:30.354Z,64.59
2023-02-03T21:29:58.686Z,63.88
2023-02-03T21:32:29.766Z,64.41
2023-02-03T21:34:56.413Z,63.77
2023-02-03T21:37:23.911Z,62.59
2023-02-03T21:39:50.886Z,62.33
2023-02-03T21:42:42.583Z,62.11
2023-02-03T21:45:19.804Z,61.36
2023-02-03T21:47:48.563Z,60.22
2023-02-03T21:50:36.379Z,60.80
2023-02-03T21:53:09.148Z,61.53
2023-02-03T21:55:41.571Z,60.63
2023-02-03T21:58:30.391Z,60.03
2023-02-03T22:00:59.616Z,59.70
2023-02-03T22:03:38.012Z,61.23
2023-02-03T22:06:16.768Z,60.93
2023-02-03T22:08:51.703Z,59.90
2023-02-03T22:11:20.185Z,59.89
2023-02-03T22:13:48.013Z,60.25
2023-02-03T22:16:17.138Z,59.33
2023-02-03T22:18:47.950Z,59.80
2023-02-03T22:21:15.538Z,59.53
2023-02-03T22:23:42.632Z,59.57
2023-02-03T22:26:10.798Z,59.98
2023-02-03T22:28:37.836Z,60.21
2023-02-03T22:31:05.219Z,59.77
2023-02-03T22:33:32.145Z,61.49
2023-02-03T22:35:58.612Z,59.78
2023-02-03T22:38:25.693Z,59.64
2023-02-03T22:40:53.016Z,59.06
2023-02-03T22:43:19.920Z,58.58
2023-02-03T22:45:46.511Z,59.97
2023-02-03T22:48:13.080Z,60.47
2023-02-03T22:50:39.781Z,61.48
2023-02-03T22:53:07.036Z,61.58
2023-02-03T22:55:33.738Z,61.59
2023-02-03T22:58:00.262Z,61.37
2023-02-03T23:00:27.200Z,60.98
2023-02-03T23:02:53.917Z,60.46
2023-02-03T23:05:20.480Z,61.99
2023-02-03T23:07:47.841Z,61.56
2023-02-03T23:10:18.858Z,60.85
2023-02-03T23:12:45.722Z,61.78
2023-02-03T23:15:13.211Z,60.63
2023-02-03T23:17:40.037Z,61.61
2023-02-03T23:20:08.210Z,61.44
2023-02-03T23:22:34.859Z,61.49
2023-02-03T23:25:02.478Z,60.82
2023-02-03T23:27:29.133Z,60.37
2023-02-03T23:29:55.750Z,59.63
2023-02-03T23:32:22.385Z,59.62
2023-02-03T23:35:07.429Z,60.38
2023-02-03T23:37:34.280Z,60.21
2023-02-03T23:40:00.888Z,60.61
2023-02-03T23:42:27.412Z,61.25
2023-02-03T23:44:53.958Z,62.17
2023-02-03T23:47:20.456Z,61.63
2023-02-03T23:49:47.230Z,62.36
2023-02-03T23:52:13.718Z,61.38
2023-02-03T23:54:40.395Z,61.15
2023-02-03T23:57:06.919Z,62.06
2023-02-03T23:59:33.491Z,61.19
